createdAt,value
2022-11-28T00:01:35.848Z,95573.00
2022-11-28T00:04:03.560Z,95576.03
2022-11-28T00:06:31.664Z,95565.19
2022-11-28T00:09:00.387Z,95559.72
2022-11-28T00:11:29.793Z,95562.16
2022-11-28T00:13:57.455Z,95549.72
2022-11-28T00:16:26.014Z,95536.41
2022-11-28T00:18:56.218Z,95543.13
2022-11-28T00:21:24.434Z,95545.31
2022-11-28T00:23:52.985Z,95552.03
2022-11-28T00:26:23.465Z,95549.56
2022-11-28T00:28:53.876Z,95528.34
2022-11-28T00:31:24.480Z,95528.75
2022-11-28T00:33:52.928Z,95533.94
2022-11-28T00:36:21.493Z,95536.00
2022-11-28T00:38:50.457Z,95518.31
2022-11-28T00:41:20.478Z,95504.06
2022-11-28T00:43:49.656Z,95508.31
2022-11-28T00:46:19.743Z,95514.34
2022-11-28T00:48:48.483Z,95524.06
2022-11-28T00:51:18.500Z,95529.84
2022-11-28T00:53:48.687Z,95523.66
2022-11-28T00:56:18.799Z,95512.28
2022-11-28T00:58:49.717Z,95513.91
2022-11-28T01:01:20.950Z,95525.97
2022-11-28T01:03:50.954Z,95525.72
2022-11-28T01:06:23.029Z,95511.75
2022-11-28T01:08:51.861Z,95523.81
2022-11-28T01:11:20.071Z,95529.97
2022-11-28T01:13:48.888Z,95520.53
2022-11-28T01:16:17.089Z,95520.78
2022-11-28T01:18:47.128Z,95517.78
2022-11-28T01:21:14.844Z,95511.44
2022-11-28T01:23:42.880Z,95504.31
2022-11-28T01:26:12.517Z,95502.97
2022-11-28T01:28:40.988Z,95497.75
2022-11-28T01:31:10.672Z,95503.50
2022-11-28T01:33:38.383Z,95501.84
2022-11-28T01:36:07.983Z,95514.06
2022-11-28T01:38:36.515Z,95502.81
2022-11-28T01:41:04.328Z,95492.09
2022-11-28T01:43:32.852Z,95473.59
2022-11-28T01:46:00.637Z,95483.19
2022-11-28T01:48:32.054Z,95488.44
2022-11-28T01:51:03.161Z,95487.31
2022-11-28T01:53:35.960Z,95488.69
2022-11-28T01:56:08.438Z,95491.16
2022-11-28T01:58:40.368Z,95498.97
2022-11-28T02:01:09.042Z,95496.78
2022-11-28T02:03:44.280Z,95501.03
2022-11-28T02:06:14.107Z,95496.09
2022-11-28T02:08:43.560Z,95510.34
2022-11-28T02:11:25.440Z,95509.53
2022-11-28T02:14:07.064Z,95486.34
2022-11-28T02:16:49.660Z,95480.75
2022-11-28T02:19:44.694Z,95469.47
2022-11-28T02:22:18.042Z,95462.06
2022-11-28T02:24:58.532Z,95440.69
2022-11-28T02:27:57.868Z,95434.06
2022-11-28T02:30:33.075Z,95400.09
2022-11-28T02:33:23.242Z,95403.09
2022-11-28T02:35:59.561Z,95417.09
2022-11-28T02:38:44.028Z,95437.81
2022-11-28T02:41:20.605Z,95449.91
2022-11-28T02:44:01.498Z,95442.63
2022-11-28T02:46:39.137Z,95433.56
2022-11-28T02:49:13.740Z,95403.97
2022-11-28T02:51:44.628Z,95382.03
2022-11-28T02:54:15.689Z,95384.59
2022-11-28T02:56:48.290Z,95374.63
2022-11-28T02:59:33.817Z,95363.13
2022-11-28T03:02:02.641Z,95367.91
2022-11-28T03:04:44.378Z,95374.06
2022-11-28T03:07:23.945Z,95373.66
2022-11-28T03:10:04.961Z,95374.34
2022-11-28T03:12:48.119Z,95355.13
2022-11-28T03:15:19.899Z,95344.72
2022-11-28T03:17:56.121Z,95354.16
2022-11-28T03:20:32.325Z,95343.75
2022-11-28T03:23:12.234Z,95322.53
2022-11-28T03:25:51.201Z,95337.59
2022-11-28T03:28:24.534Z,95326.09
2022-11-28T03:30:54.985Z,95337.72
2022-11-28T03:33:26.145Z,95387.91
2022-11-28T03:36:00.246Z,95412.28
2022-11-28T03:38:32.762Z,95424.03
2022-11-28T03:41:08.176Z,95442.34
2022-11-28T03:43:42.183Z,95442.34
2022-11-28T03:46:14.673Z,95428.13
2022-11-28T03:48:46.257Z,95439.41
2022-11-28T03:51:18.118Z,95430.50
2022-11-28T03:53:52.294Z,95424.63
2022-11-28T03:56:25.701Z,95424.06
2022-11-28T03:58:57.610Z,95406.78
2022-11-28T04:01:33.084Z,95403.34
2022-11-28T04:04:10.835Z,95387.53
2022-11-28T04:06:52.189Z,95370.22
2022-11-28T04:09:26.084Z,95376.53
2022-11-28T04:11:57.776Z,95370.09
2022-11-28T04:14:33.284Z,95378.97
2022-11-28T04:17:06.779Z,95390.94
2022-11-28T04:19:39.845Z,95386.38
2022-11-28T04:22:17.172Z,95379.81
2022-11-28T04:24:49.874Z,95378.13
2022-11-28T04:27:24.132Z,95382.63
2022-11-28T04:29:58.048Z,95384.25
2022-11-28T04:32:28.274Z,95399.66
2022-11-28T04:35:02.472Z,95396.06
2022-11-28T04:37:33.492Z,95405.00
2022-11-28T04:40:02.011Z,95401.44
2022-11-28T04:42:36.349Z,95411.03
2022-11-28T04:45:10.821Z,95401.56
2022-11-28T04:47:38.758Z,95385.75
2022-11-28T04:50:08.062Z,95377.38
2022-11-28T04:52:45.344Z,95362.66
2022-11-28T04:55:19.464Z,95352.25
2022-11-28T04:57:56.904Z,95352.25
2022-11-28T05:00:25.142Z,95343.47
2022-11-28T05:02:55.426Z,95337.97
2022-11-28T05:05:24.896Z,95330.44
2022-11-28T05:07:54.612Z,95310.53
2022-11-28T05:10:22.512Z,95314.09
2022-11-28T05:12:50.939Z,95337.56
2022-11-28T05:15:19.243Z,95347.22
2022-11-28T05:17:48.142Z,95341.03
2022-11-28T05:20:16.863Z,95335.56
2022-11-28T05:22:44.552Z,95338.84
2022-11-28T05:25:13.617Z,95324.84
2022-11-28T05:27:41.290Z,95322.47
2022-11-28T05:30:11.004Z,95323.97
2022-11-28T05:32:38.792Z,95323.44
2022-11-28T05:35:06.886Z,95326.47
2022-11-28T05:37:34.863Z,95319.06
2022-11-28T05:40:02.665Z,95316.88
2022-11-28T05:42:35.575Z,95329.38
2022-11-28T05:45:03.336Z,95335.84
2022-11-28T05:47:32.189Z,95335.84
2022-11-28T05:50:00.126Z,95327.75
2022-11-28T05:52:32.161Z,95316.34
2022-11-28T05:55:01.448Z,95308.63
2022-11-28T05:57:31.943Z,95314.94
2022-11-28T06:00:01.022Z,95339.56
2022-11-28T06:02:28.752Z,95337.00
2022-11-28T06:04:56.506Z,95324.63
2022-11-28T06:07:24.410Z,95332.41
2022-11-28T06:09:52.110Z,95321.31
2022-11-28T06:12:20.074Z,95328.63
2022-11-28T06:14:47.761Z,95334.19
2022-11-28T06:17:17.425Z,95356.53
2022-11-28T06:19:45.291Z,95350.44
2022-11-28T06:22:13.385Z,95365.72
2022-11-28T06:24:41.068Z,95352.06
2022-11-28T06:27:09.460Z,95353.19
2022-11-28T06:29:37.106Z,95352.34
2022-11-28T06:32:04.899Z,95345.78
2022-11-28T06:34:34.451Z,95347.06
2022-11-28T06:37:02.081Z,95332.81
2022-11-28T06:39:30.136Z,95349.03
2022-11-28T06:41:58.061Z,95346.06
2022-11-28T06:44:26.672Z,95341.66
2022-11-28T06:46:55.124Z,95333.38
2022-11-28T06:49:23.438Z,95336.91
2022-11-28T06:51:52.450Z,95332.50
2022-11-28T06:54:20.423Z,95336.31
2022-11-28T06:56:48.126Z,95329.84
2022-11-28T06:59:16.313Z,95327.53
2022-11-28T07:01:44.067Z,95330.50
2022-11-28T07:04:11.792Z,95331.88
2022-11-28T07:06:39.438Z,95325.84
2022-11-28T07:09:08.784Z,95322.50
2022-11-28T07:11:36.454Z,95327.41
2022-11-28T07:14:04.617Z,95327.13
2022-11-28T07:16:34.193Z,95324.81
2022-11-28T07:19:02.336Z,95324.38
2022-11-28T07:21:30.825Z,95325.22
2022-11-28T07:24:00.006Z,95327.81
2022-11-28T07:26:28.985Z,95337.94
2022-11-28T07:29:00.113Z,95330.13
2022-11-28T07:31:32.016Z,95330.63
2022-11-28T07:34:02.147Z,95328.56
2022-11-28T07:36:30.338Z,95335.94
2022-11-28T07:39:00.455Z,95327.94
2022-11-28T07:41:30.003Z,95329.16
2022-11-28T07:43:59.777Z,95322.00
2022-11-28T07:46:29.207Z,95329.66
2022-11-28T07:48:57.979Z,95329.66
2022-11-28T07:51:27.952Z,95328.03
2022-11-28T07:53:56.401Z,95332.00
2022-11-28T07:56:25.660Z,95324.84
2022-11-28T07:58:57.925Z,95327.13
2022-11-28T08:01:31.769Z,95326.97
2022-11-28T08:04:01.350Z,95333.03
2022-11-28T08:06:31.266Z,95331.78
2022-11-28T08:09:01.831Z,95329.66
2022-11-28T08:11:30.633Z,95329.22
2022-11-28T08:13:59.789Z,95323.84
2022-11-28T08:16:29.814Z,95313.81
2022-11-28T08:18:57.757Z,95315.94
2022-11-28T08:21:27.436Z,95319.22
2022-11-28T08:23:57.384Z,95315.34
2022-11-28T08:26:30.351Z,95321.06
2022-11-28T08:29:00.933Z,95316.06
2022-11-28T08:31:30.694Z,95325.88
2022-11-28T08:34:01.584Z,95320.88
2022-11-28T08:36:29.749Z,95314.69
2022-11-28T08:39:16.696Z,95312.91
2022-11-28T08:41:47.801Z,95313.25
2022-11-28T08:44:17.626Z,95311.00
2022-11-28T08:46:45.299Z,95310.88
2022-11-28T08:49:13.612Z,95314.34
2022-11-28T08:51:41.302Z,95324.47
2022-11-28T08:54:09.595Z,95323.66
2022-11-28T08:56:37.265Z,95320.78
2022-11-28T08:59:06.965Z,95321.59
2022-11-28T09:01:36.412Z,95320.66
2022-11-28T09:04:05.384Z,95316.78
2022-11-28T09:06:33.521Z,95323.97
2022-11-28T09:09:01.938Z,95323.69
2022-11-28T09:11:30.222Z,95319.81
2022-11-28T09:13:57.989Z,95320.84
2022-11-28T09:16:26.434Z,95328.72
2022-11-28T09:18:57.397Z,95320.88
2022-11-28T09:21:25.040Z,95329.88
2022-11-28T09:23:55.330Z,95323.69
2022-11-28T09:26:26.248Z,95330.75
2022-11-28T09:28:54.872Z,95329.63
2022-11-28T09:31:23.789Z,95333.41
2022-11-28T09:33:51.603Z,95330.81
2022-11-28T09:36:22.644Z,95329.66
2022-11-28T09:38:50.498Z,95326.38
2022-11-28T09:41:39.087Z,95325.56
2022-11-28T09:44:14.885Z,95318.69
2022-11-28T09:46:43.813Z,95330.44
2022-11-28T09:49:23.084Z,95321.81
2022-11-28T09:51:56.165Z,95320.19
2022-11-28T09:54:33.289Z,95327.72
2022-11-28T09:57:03.356Z,95315.41
2022-11-28T09:59:32.728Z,95317.25
2022-11-28T10:02:14.053Z,95317.41
2022-11-28T10:04:46.396Z,95308.59
2022-11-28T10:07:25.184Z,95316.16
2022-11-28T10:10:01.172Z,95322.81
2022-11-28T10:12:42.751Z,95319.66
2022-11-28T10:15:38.413Z,95320.06
2022-11-28T10:18:23.416Z,95319.09
2022-11-28T10:20:55.816Z,95311.22
2022-11-28T10:23:30.238Z,95315.47
2022-11-28T10:26:01.624Z,95307.28
2022-11-28T10:28:33.489Z,95303.66
2022-11-28T10:31:07.220Z,95306.91
2022-11-28T10:33:41.012Z,95308.72
2022-11-28T10:36:18.339Z,95312.06
2022-11-28T10:38:47.311Z,95307.81
2022-11-28T10:41:19.956Z,95312.03
2022-11-28T10:43:54.971Z,95312.19
2022-11-28T10:46:43.195Z,95299.34
2022-11-28T10:49:24.117Z,95297.88
2022-11-28T10:52:02.775Z,95294.38
2022-11-28T10:54:48.122Z,95291.22
2022-11-28T10:57:22.588Z,95295.44
2022-11-28T11:00:00.450Z,95291.28
2022-11-28T11:02:38.491Z,95290.69
2022-11-28T11:05:07.210Z,95290.13
2022-11-28T11:07:35.819Z,95290.22
2022-11-28T11:10:15.274Z,95296.78
2022-11-28T11:12:45.193Z,95292.16
2022-11-28T11:15:22.877Z,95290.84
2022-11-28T11:17:51.815Z,95282.59
2022-11-28T11:20:33.621Z,95291.13
2022-11-28T11:23:03.313Z,95292.28
2022-11-28T11:25:33.256Z,95288.38
2022-11-28T11:28:04.909Z,95285.91
2022-11-28T11:30:35.866Z,95286.56
2022-11-28T11:33:07.489Z,95290.34
2022-11-28T11:35:37.561Z,95282.66
2022-11-28T11:38:18.537Z,95291.16
2022-11-28T11:40:48.017Z,95287.53
2022-11-28T11:43:28.135Z,95295.28
2022-11-28T11:46:07.293Z,95284.97
2022-11-28T11:48:37.769Z,95293.16
2022-11-28T11:51:06.137Z,95289.53
2022-11-28T11:53:34.032Z,95294.44
2022-11-28T11:56:04.515Z,95286.03
2022-11-28T11:58:40.992Z,95283.22
2022-11-28T12:01:11.898Z,95285.22
2022-11-28T12:03:44.012Z,95287.22
2022-11-28T12:06:17.001Z,95288.22
2022-11-28T12:08:51.190Z,95290.03
2022-11-28T12:11:26.236Z,95289.19
2022-11-28T12:13:54.635Z,95292.81
2022-11-28T12:16:41.459Z,95288.84
2022-11-28T12:19:22.796Z,95291.13
2022-11-28T12:22:04.182Z,95275.97
2022-11-28T12:24:40.235Z,95275.97
2022-11-28T12:27:22.057Z,95274.84
2022-11-28T12:30:02.628Z,95266.78
2022-11-28T12:32:43.576Z,95265.03
2022-11-28T12:35:25.844Z,95260.59
2022-11-28T12:38:10.849Z,95261.84
2022-11-28T12:40:51.887Z,95266.47
2022-11-28T12:43:31.505Z,95266.66
2022-11-28T12:46:06.643Z,95261.56
2022-11-28T12:48:51.658Z,95269.47
2022-11-28T12:51:32.384Z,95264.66
2022-11-28T12:54:15.858Z,95260.22
2022-11-28T12:56:52.767Z,95277.28
2022-11-28T12:59:28.351Z,95261.97
2022-11-28T13:02:09.419Z,95266.88
2022-11-28T13:04:58.280Z,95274.59
2022-11-28T13:07:40.963Z,95266.53
2022-11-28T13:10:15.136Z,95256.19
2022-11-28T13:12:51.893Z,95273.41
2022-11-28T13:15:37.988Z,95268.59
2022-11-28T13:18:19.062Z,95267.44
2022-11-28T13:20:54.065Z,95257.75
2022-11-28T13:23:28.641Z,95263.00
2022-11-28T13:26:03.625Z,95265.63
2022-11-28T13:28:38.645Z,95259.38
2022-11-28T13:31:13.952Z,95258.56
2022-11-28T13:33:51.566Z,95260.00
2022-11-28T13:39:28.449Z,95255.75
2022-11-28T13:42:43.948Z,95257.75
2022-11-28T13:45:01.332Z,95256.75
2022-11-28T13:47:35.033Z,95253.13
2022-11-28T13:50:39.490Z,95251.00
2022-11-28T13:53:31.448Z,95247.88
2022-11-28T13:56:21.876Z,95249.19
2022-11-28T13:58:53.939Z,95252.81
2022-11-28T14:01:23.689Z,95249.88
2022-11-28T14:04:02.769Z,95253.66
2022-11-28T14:06:32.467Z,95251.56
2022-11-28T14:09:07.370Z,95250.38
2022-11-28T14:12:00.362Z,95248.38
2022-11-28T14:14:57.541Z,95243.69
2022-11-28T14:17:41.953Z,95245.31
2022-11-28T14:20:26.068Z,95250.75
2022-11-28T14:23:14.141Z,95242.56
2022-11-28T14:25:44.898Z,95238.13
2022-11-28T14:28:23.182Z,95236.16
2022-11-28T14:30:52.423Z,95238.94
2022-11-28T14:33:24.449Z,95244.06
2022-11-28T14:36:24.053Z,95242.69
2022-11-28T14:39:27.743Z,95247.13
2022-11-28T14:45:43.374Z,95245.38
2022-11-28T14:48:28.404Z,95249.38
2022-11-28T14:51:01.853Z,95247.38
2022-11-28T14:53:49.872Z,95247.19
2022-11-28T14:56:26.004Z,95249.06
2022-11-28T14:58:58.870Z,95249.50
2022-11-28T15:01:41.725Z,95251.81
2022-11-28T15:04:40.110Z,95253.19
2022-11-28T15:07:22.546Z,95254.06
2022-11-28T15:10:07.537Z,95256.06
2022-11-28T15:12:47.407Z,95252.31
2022-11-28T15:15:17.061Z,95251.38
2022-11-28T15:17:51.274Z,95249.72
2022-11-28T15:20:25.442Z,95254.34
2022-11-28T15:22:53.501Z,95248.47
2022-11-28T15:25:25.249Z,95249.28
2022-11-28T15:27:55.292Z,95246.19
2022-11-28T15:30:26.965Z,95241.28
2022-11-28T15:32:58.450Z,95246.25
2022-11-28T15:35:27.521Z,95251.81
2022-11-28T15:37:58.362Z,95254.16
2022-11-28T15:40:32.543Z,95242.38
2022-11-28T15:43:02.322Z,95246.47
2022-11-28T15:45:35.656Z,95246.78
2022-11-28T15:48:04.544Z,95248.97
2022-11-28T15:50:35.096Z,95244.72
2022-11-28T15:53:05.475Z,95247.31
2022-11-28T15:55:36.252Z,95248.66
2022-11-28T15:58:12.080Z,95245.38
2022-11-28T16:00:43.115Z,95244.75
2022-11-28T16:03:16.888Z,95243.13
2022-11-28T16:05:47.152Z,95242.47
2022-11-28T16:08:28.330Z,95240.81
2022-11-28T16:10:58.873Z,95246.41
2022-11-28T16:13:26.764Z,95242.34
2022-11-28T16:15:57.544Z,95238.09
2022-11-28T16:18:28.243Z,95239.91
2022-11-28T16:20:57.259Z,95252.34
2022-11-28T16:23:29.402Z,95249.56
2022-11-28T16:26:04.073Z,95254.00
2022-11-28T16:28:34.280Z,95238.59
2022-11-28T16:31:02.756Z,95241.56
2022-11-28T16:33:39.117Z,95247.81
2022-11-28T16:36:34.467Z,95237.34
2022-11-28T16:39:09.237Z,95240.97
2022-11-28T16:41:40.813Z,95241.94
2022-11-28T16:44:13.603Z,95245.22
2022-11-28T16:46:49.367Z,95241.13
2022-11-28T16:49:34.484Z,95240.78
2022-11-28T16:52:51.525Z,95245.41
2022-11-28T16:55:41.936Z,95235.25
2022-11-28T16:58:14.345Z,95241.00
2022-11-28T17:00:47.637Z,95242.00
2022-11-28T17:03:48.477Z,95245.31
2022-11-28T17:06:22.399Z,95238.28
2022-11-28T17:08:50.460Z,95239.59
2022-11-28T17:11:21.096Z,95232.22
2022-11-28T17:13:51.006Z,95231.22
2022-11-28T17:16:21.855Z,95235.84
2022-11-28T17:18:50.378Z,95242.06
2022-11-28T17:21:23.093Z,95238.16
2022-11-28T17:23:51.116Z,95237.84
2022-11-28T17:26:18.773Z,95239.66
2022-11-28T17:28:47.008Z,95238.19
2022-11-28T17:31:16.064Z,95246.03
2022-11-28T17:33:44.994Z,95246.38
2022-11-28T17:36:13.340Z,95238.19
2022-11-28T17:38:41.377Z,95243.09
2022-11-28T17:41:13.399Z,95246.69
2022-11-28T17:43:41.430Z,95251.47
2022-11-28T17:46:10.047Z,95253.44
2022-11-28T17:48:39.724Z,95249.03
2022-11-28T17:51:07.474Z,95250.66
2022-11-28T17:53:35.921Z,95252.94
2022-11-28T17:56:04.442Z,95257.34
2022-11-28T17:58:32.823Z,95253.91
2022-11-28T18:01:01.162Z,95251.94
2022-11-28T18:03:30.199Z,95249.97
2022-11-28T18:05:59.393Z,95255.22
2022-11-28T18:08:27.365Z,95251.63
2022-11-28T18:11:04.629Z,95246.03
2022-11-28T18:13:33.406Z,95239.47
2022-11-28T18:16:01.470Z,95252.75
2022-11-28T18:18:30.370Z,95256.72
2022-11-28T18:21:00.234Z,95254.41
2022-11-28T18:23:28.421Z,95251.94
2022-11-28T18:25:56.063Z,95253.59
2022-11-28T18:28:23.757Z,95253.91
2022-11-28T18:30:51.525Z,95250.47
2022-11-28T18:33:20.637Z,95250.16
2022-11-28T18:35:48.345Z,95252.63
2022-11-28T18:38:18.124Z,95252.63
2022-11-28T18:40:45.833Z,95256.22
2022-11-28T18:43:13.944Z,95249.00
2022-11-28T18:45:41.961Z,95241.97
2022-11-28T18:48:10.671Z,95252.28
2022-11-28T18:50:39.962Z,95255.41
2022-11-28T18:53:08.412Z,95243.13
2022-11-28T18:55:37.774Z,95239.53
2022-11-28T18:58:06.805Z,95241.00
2022-11-28T19:00:34.549Z,95244.41
2022-11-28T19:03:03.213Z,95245.25
2022-11-28T19:05:35.045Z,95251.97
2022-11-28T19:08:06.239Z,95242.97
2022-11-28T19:10:39.728Z,95245.25
2022-11-28T19:13:07.753Z,95255.88
2022-11-28T19:15:39.157Z,95257.53
2022-11-28T19:18:07.173Z,95255.22
2022-11-28T19:20:35.638Z,95255.88
2022-11-28T19:23:03.716Z,95253.94
2022-11-28T19:25:32.430Z,95249.34
2022-11-28T19:28:01.823Z,95246.56
2022-11-28T19:30:29.568Z,95245.75
2022-11-28T19:32:58.192Z,95247.03
2022-11-28T19:35:25.915Z,95248.66
2022-11-28T19:37:54.749Z,95246.72
2022-11-28T19:40:22.756Z,95254.25
2022-11-28T19:42:51.020Z,95257.22
2022-11-28T19:45:24.409Z,95250.81
2022-11-28T19:47:55.757Z,95250.00
2022-11-28T19:50:25.603Z,95254.63
2022-11-28T19:52:56.532Z,95252.78
2022-11-28T19:55:24.351Z,95249.34
2022-11-28T19:57:52.800Z,95258.66
2022-11-28T20:00:22.819Z,95257.69
2022-11-28T20:02:50.520Z,95254.25
2022-11-28T20:05:19.107Z,95260.16
2022-11-28T20:07:47.150Z,95252.31
2022-11-28T20:10:14.905Z,95260.81
2022-11-28T20:12:43.057Z,95255.22
2022-11-28T20:15:16.679Z,95254.91
2022-11-28T20:17:47.653Z,95255.56
2022-11-28T20:20:15.822Z,95264.72
2022-11-28T20:22:43.545Z,95253.94
2022-11-28T20:25:16.479Z,95256.22
2022-11-28T20:27:46.909Z,95262.44
2022-11-28T20:30:15.703Z,95270.28
2022-11-28T20:32:43.914Z,95269.47
2022-11-28T20:35:13.224Z,95267.00
2022-11-28T20:37:40.957Z,95273.22
2022-11-28T20:40:10.300Z,95265.06
2022-11-28T20:42:39.987Z,95258.31
2022-11-28T20:45:08.994Z,95268.50
2022-11-28T20:47:36.664Z,95268.66
2022-11-28T20:50:05.196Z,95263.44
2022-11-28T20:52:34.226Z,95269.31
2022-11-28T20:55:02.607Z,95272.56
2022-11-28T20:57:30.267Z,95270.94
2022-11-28T20:59:58.243Z,95271.28
2022-11-28T21:02:25.991Z,95278.16
2022-11-28T21:04:53.996Z,95273.91
2022-11-28T21:07:22.793Z,95280.44
2022-11-28T21:09:54.005Z,95284.03
2022-11-28T21:12:21.713Z,95276.50
2022-11-28T21:14:49.831Z,95281.75
2022-11-28T21:17:17.509Z,95276.50
2022-11-28T21:19:45.793Z,95275.53
2022-11-28T21:22:13.707Z,95272.91
2022-11-28T21:24:41.494Z,95285.66
2022-11-28T21:27:10.866Z,95282.41
2022-11-28T21:29:38.524Z,95282.56
2022-11-28T21:32:06.340Z,95278.63
2022-11-28T21:34:34.749Z,95273.91
2022-11-28T21:37:02.808Z,95265.38
2022-11-28T21:39:31.076Z,95264.56
2022-11-28T21:41:58.742Z,95266.19
2022-11-28T21:44:27.939Z,95266.06
2022-11-28T21:46:55.570Z,95273.72
2022-11-28T21:49:23.614Z,95268.31
2022-11-28T21:51:53.910Z,95270.13
2022-11-28T21:54:24.555Z,95277.50
2022-11-28T21:56:53.148Z,95273.91
2022-11-28T21:59:22.745Z,95272.94
2022-11-28T22:01:52.367Z,95273.59
2022-11-28T22:04:21.885Z,95275.56
2022-11-28T22:06:50.774Z,95270.94
2022-11-28T22:09:19.089Z,95270.63
2022-11-28T22:11:46.773Z,95265.91
2022-11-28T22:14:16.337Z,95275.22
2022-11-28T22:16:44.000Z,95266.38
2022-11-28T22:19:14.327Z,95273.72
2022-11-28T22:21:53.139Z,95274.56
2022-11-28T22:24:23.469Z,95282.09
2022-11-28T22:26:51.323Z,95274.25
2022-11-28T22:29:19.835Z,95276.50
2022-11-28T22:31:49.219Z,95280.78
2022-11-28T22:34:20.135Z,95284.53
2022-11-28T22:36:47.821Z,95276.50
2022-11-28T22:39:15.995Z,95287.00
2022-11-28T22:41:43.700Z,95278.81
2022-11-28T22:44:12.195Z,95292.88
2022-11-28T22:46:40.006Z,95280.94
2022-11-28T22:49:10.944Z,95287.34
2022-11-28T22:51:40.940Z,95286.69
2022-11-28T22:54:12.415Z,95293.22
2022-11-28T22:56:41.008Z,95287.00
2022-11-28T22:59:13.152Z,95290.28
2022-11-28T23:01:41.840Z,95287.63
2022-11-28T23:04:09.907Z,95282.88
2022-11-28T23:06:40.190Z,95279.91
2022-11-28T23:09:09.569Z,95278.91
2022-11-28T23:11:40.220Z,95283.13
2022-11-28T23:14:08.920Z,95281.31
2022-11-28T23:16:39.807Z,95278.16
2022-11-28T23:19:11.577Z,95285.53
2022-11-28T23:21:43.518Z,95285.19
2022-11-28T23:24:15.564Z,95288.13
2022-11-28T23:26:44.807Z,95276.97
2022-11-28T23:29:14.304Z,95282.38
2022-11-28T23:31:43.841Z,95277.97
2022-11-28T23:34:12.624Z,95278.31
2022-11-28T23:36:43.973Z,95272.25
2022-11-28T23:39:13.618Z,95278.63
2022-11-28T23:41:42.316Z,95279.28
2022-11-28T23:44:11.173Z,95282.88
2022-11-28T23:46:39.337Z,95275.03
2022-11-28T23:49:07.612Z,95278.91
2022-11-28T23:51:37.093Z,95279.75
2022-11-28T23:54:06.389Z,95278.75
2022-11-28T23:56:36.463Z,95277.63
2022-11-28T23:59:06.622Z,95276.28
